createdAt,value
2023-02-17T00:02:28.911Z,3.85
2023-02-17T00:04:58.584Z,3.96
2023-02-17T00:07:31.598Z,3.94
2023-02-17T00:10:01.948Z,3.91
2023-02-17T00:12:35.041Z,3.98
2023-02-17T00:15:06.735Z,4.02
2023-02-17T00:17:38.518Z,3.96
2023-02-17T00:20:08.976Z,3.93
2023-02-17T00:22:38.116Z,3.97
2023-02-17T00:25:10.402Z,4.02
2023-02-17T00:27:42.468Z,4.06
2023-02-17T00:30:14.428Z,4.08
2023-02-17T00:32:57.885Z,4.12
2023-02-17T00:35:32.939Z,4.17
2023-02-17T00:38:04.356Z,4.15
2023-02-17T00:40:36.960Z,4.11
2023-02-17T00:43:14.231Z,4.12
2023-02-17T00:45:42.945Z,4.10
2023-02-17T00:48:12.557Z,4.38
2023-02-17T00:50:42.962Z,4.34
2023-02-17T00:53:21.150Z,4.71
2023-02-17T00:56:01.502Z,5.31
2023-02-17T00:58:35.624Z,5.98
2023-02-17T01:01:12.996Z,6.23
2023-02-17T01:03:43.166Z,6.36
2023-02-17T01:06:28.850Z,6.56
2023-02-17T01:09:05.743Z,6.27
2023-02-17T01:11:36.286Z,5.96
2023-02-17T01:14:19.443Z,5.63
2023-02-17T01:16:50.275Z,5.56
2023-02-17T01:19:21.213Z,5.14
2023-02-17T01:21:53.560Z,4.97
2023-02-17T01:24:25.537Z,4.90
2023-02-17T01:26:53.955Z,4.77
2023-02-17T01:29:29.054Z,4.70
2023-02-17T01:32:03.040Z,4.66
2023-02-17T01:34:40.670Z,4.66
2023-02-17T01:37:10.030Z,4.50
2023-02-17T01:39:47.016Z,4.43
2023-02-17T01:42:19.695Z,4.36
2023-02-17T01:45:27.953Z,4.25
2023-02-17T01:48:13.148Z,4.38
2023-02-17T01:50:51.350Z,4.22
2023-02-17T01:53:32.713Z,4.19
2023-02-17T01:56:15.003Z,4.07
2023-02-17T01:58:47.247Z,3.98
2023-02-17T02:01:15.929Z,3.86
2023-02-17T02:03:59.071Z,3.98
2023-02-17T02:06:34.167Z,3.80
2023-02-17T02:09:05.754Z,3.71
2023-02-17T02:11:35.475Z,3.71
2023-02-17T02:14:11.672Z,3.78
2023-02-17T02:16:49.834Z,3.64
2023-02-17T02:19:52.077Z,3.83
2023-02-17T02:22:56.560Z,3.89
2023-02-17T02:26:00.014Z,3.72
2023-02-17T02:28:39.896Z,3.51
2023-02-17T02:31:31.679Z,3.58
2023-02-17T02:34:04.436Z,3.46
2023-02-17T02:36:38.450Z,3.44
2023-02-17T02:39:12.929Z,3.39
2023-02-17T02:41:55.231Z,3.37
2023-02-17T02:44:28.454Z,3.23
2023-02-17T02:47:02.936Z,3.25
2023-02-17T02:49:43.134Z,3.20
2023-02-17T02:52:26.125Z,3.26
2023-02-17T02:55:04.815Z,3.37
2023-02-17T02:57:42.567Z,3.27
2023-02-17T03:00:20.695Z,3.42
2023-02-17T03:02:54.945Z,3.28
2023-02-17T03:05:48.404Z,3.33
2023-02-17T03:08:23.025Z,3.33
2023-02-17T03:10:57.065Z,3.41
2023-02-17T03:13:29.800Z,3.63
2023-02-17T03:16:02.640Z,3.56
2023-02-17T03:18:33.480Z,3.68
2023-02-17T03:21:18.384Z,3.71
2023-02-17T03:23:48.490Z,3.76
2023-02-17T03:26:22.713Z,3.97
2023-02-17T03:28:53.526Z,4.08
2023-02-17T03:31:24.220Z,4.17
2023-02-17T03:34:00.737Z,4.15
2023-02-17T03:36:38.500Z,4.19
2023-02-17T03:39:15.512Z,4.39
2023-02-17T03:41:44.211Z,4.45
2023-02-17T03:44:13.451Z,4.40
2023-02-17T03:46:42.084Z,4.41
2023-02-17T03:49:12.982Z,4.53
2023-02-17T03:51:48.401Z,4.65
2023-02-17T03:54:20.146Z,4.55
2023-02-17T03:56:50.426Z,4.53
2023-02-17T03:59:33.802Z,4.73
2023-02-17T04:02:02.103Z,4.64
2023-02-17T04:04:31.976Z,4.66
2023-02-17T04:07:02.433Z,4.69
2023-02-17T04:09:32.035Z,4.72
2023-02-17T04:12:03.726Z,4.65
2023-02-17T04:14:35.613Z,4.63
2023-02-17T04:17:05.593Z,4.70
2023-02-17T04:19:47.218Z,4.71
2023-02-17T04:22:23.133Z,4.64
2023-02-17T04:24:54.617Z,4.68
2023-02-17T04:27:26.260Z,4.65
2023-02-17T04:30:00.439Z,4.64
2023-02-17T04:32:34.400Z,4.69
2023-02-17T04:35:04.209Z,4.73
2023-02-17T04:37:36.976Z,4.78
2023-02-17T04:40:10.549Z,4.60
2023-02-17T04:42:39.193Z,4.56
2023-02-17T04:45:12.851Z,4.72
2023-02-17T04:47:46.959Z,4.40
2023-02-17T04:50:21.103Z,4.38
2023-02-17T04:52:56.997Z,4.19
2023-02-17T04:55:27.688Z,4.21
2023-02-17T04:58:01.783Z,4.37
2023-02-17T05:00:31.705Z,4.33
2023-02-17T05:03:05.634Z,4.34
2023-02-17T05:05:37.015Z,4.47
2023-02-17T05:08:08.578Z,4.22
2023-02-17T05:10:38.857Z,4.36
2023-02-17T05:13:09.663Z,4.28
2023-02-17T05:15:47.557Z,4.38
2023-02-17T05:18:16.135Z,4.43
2023-02-17T05:20:47.115Z,4.56
2023-02-17T05:23:17.484Z,4.58
2023-02-17T05:25:57.066Z,4.65
2023-02-17T05:28:27.693Z,4.72
2023-02-17T05:31:04.798Z,4.86
2023-02-17T05:33:33.522Z,5.06
2023-02-17T05:36:09.602Z,6.00
2023-02-17T05:38:42.173Z,6.82
2023-02-17T05:41:11.817Z,7.61
2023-02-17T05:43:51.889Z,7.67
2023-02-17T05:46:36.046Z,7.59
2023-02-17T05:49:06.577Z,7.84
2023-02-17T05:51:39.389Z,8.15
2023-02-17T05:54:13.514Z,8.40
2023-02-17T05:56:43.905Z,8.58
2023-02-17T05:59:21.024Z,8.65
2023-02-17T06:01:52.789Z,8.51
2023-02-17T06:04:23.111Z,8.60
2023-02-17T06:06:53.678Z,8.61
2023-02-17T06:09:37.129Z,8.77
2023-02-17T06:12:21.622Z,8.53
2023-02-17T06:14:51.995Z,8.84
2023-02-17T06:17:23.788Z,8.68
2023-02-17T06:19:53.905Z,8.92
2023-02-17T06:22:23.082Z,9.22
2023-02-17T06:24:58.283Z,9.38
2023-02-17T06:27:42.851Z,9.45
2023-02-17T06:30:24.530Z,9.76
2023-02-17T06:32:53.529Z,9.77
2023-02-17T06:35:25.081Z,9.88
2023-02-17T06:37:55.578Z,10.01
2023-02-17T06:40:31.413Z,9.81
2023-02-17T06:43:07.574Z,9.69
2023-02-17T06:45:37.776Z,9.63
2023-02-17T06:48:06.579Z,9.81
2023-02-17T06:50:44.067Z,9.73
2023-02-17T06:53:14.605Z,9.63
2023-02-17T06:55:48.693Z,9.53
2023-02-17T06:58:28.776Z,9.55
2023-02-17T07:01:02.691Z,9.55
2023-02-17T07:03:41.665Z,9.65
2023-02-17T07:06:15.910Z,9.47
2023-02-17T07:08:55.661Z,9.57
2023-02-17T07:11:39.279Z,9.60
2023-02-17T07:14:13.461Z,9.88
2023-02-17T07:16:41.616Z,9.67
2023-02-17T07:19:13.090Z,9.78
2023-02-17T07:21:43.820Z,9.74
2023-02-17T07:24:17.437Z,9.69
2023-02-17T07:26:58.962Z,9.71
2023-02-17T07:29:29.739Z,9.65
2023-02-17T07:32:01.920Z,9.51
2023-02-17T07:34:41.895Z,9.39
2023-02-17T07:37:13.679Z,9.39
2023-02-17T07:39:50.105Z,9.88
2023-02-17T07:42:33.367Z,10.11
2023-02-17T07:45:05.138Z,10.24
2023-02-17T07:47:36.934Z,10.07
2023-02-17T07:50:05.698Z,10.13
2023-02-17T07:52:39.556Z,10.40
2023-02-17T07:55:08.643Z,10.26
2023-02-17T07:57:49.774Z,10.16
2023-02-17T08:00:30.301Z,10.06
2023-02-17T08:03:02.404Z,9.87
2023-02-17T08:05:40.143Z,9.75
2023-02-17T08:08:27.740Z,9.57
2023-02-17T08:11:20.326Z,9.49
2023-02-17T08:13:55.916Z,9.42
2023-02-17T08:16:29.788Z,9.34
2023-02-17T08:18:59.479Z,9.27
2023-02-17T08:21:29.120Z,9.33
2023-02-17T08:24:04.065Z,9.23
2023-02-17T08:26:35.877Z,9.21
2023-02-17T08:29:08.074Z,9.12
2023-02-17T08:31:38.661Z,9.19
2023-02-17T08:34:18.208Z,9.13
2023-02-17T08:36:51.789Z,9.24
2023-02-17T08:39:22.298Z,9.35
2023-02-17T08:41:53.241Z,9.44
2023-02-17T08:44:25.824Z,9.61
2023-02-17T08:46:56.474Z,9.85
2023-02-17T08:49:33.208Z,9.96
2023-02-17T08:52:06.238Z,10.38
2023-02-17T08:54:40.732Z,11.19
2023-02-17T08:57:17.702Z,11.17
2023-02-17T08:59:56.355Z,11.30
2023-02-17T09:02:27.953Z,11.24
2023-02-17T09:04:56.748Z,11.33
2023-02-17T09:07:28.159Z,11.31
2023-02-17T09:10:03.770Z,11.16
2023-02-17T09:12:33.225Z,11.27
2023-02-17T09:15:09.387Z,11.20
2023-02-17T09:17:41.379Z,11.34
2023-02-17T09:20:23.866Z,11.23
2023-02-17T09:22:57.406Z,11.17
2023-02-17T09:25:34.024Z,11.17
2023-02-17T09:28:05.518Z,11.10
2023-02-17T09:30:38.797Z,10.98
2023-02-17T09:33:10.416Z,11.04
2023-02-17T09:35:40.075Z,11.07
2023-02-17T09:38:10.432Z,11.14
2023-02-17T09:40:44.220Z,11.18
2023-02-17T09:43:22.603Z,11.20
2023-02-17T09:46:08.956Z,11.23
2023-02-17T09:48:39.999Z,11.21
2023-02-17T09:51:17.925Z,11.06
2023-02-17T09:53:55.452Z,11.06
2023-02-17T09:56:33.260Z,10.91
2023-02-17T09:59:10.113Z,10.88
2023-02-17T10:01:55.148Z,11.00
2023-02-17T10:04:37.649Z,10.96
2023-02-17T10:07:25.073Z,11.03
2023-02-17T10:09:57.480Z,11.09
2023-02-17T10:12:39.800Z,11.06
2023-02-17T10:15:13.681Z,11.16
2023-02-17T10:18:01.508Z,11.12
2023-02-17T10:20:37.360Z,11.10
2023-02-17T10:23:09.926Z,11.06
2023-02-17T10:26:12.436Z,11.04
2023-02-17T10:28:52.098Z,11.05
2023-02-17T10:31:57.952Z,10.98
2023-02-17T10:34:49.880Z,10.99
2023-02-17T10:37:27.336Z,11.04
2023-02-17T10:40:01.673Z,11.10
2023-02-17T10:42:43.559Z,11.18
2023-02-17T10:45:26.605Z,11.19
2023-02-17T10:47:59.459Z,11.13
2023-02-17T10:50:34.119Z,11.23
2023-02-17T10:53:05.146Z,11.35
2023-02-17T10:55:40.249Z,11.41
2023-02-17T10:58:25.983Z,11.39
2023-02-17T11:00:56.964Z,11.45
2023-02-17T11:03:33.000Z,11.53
2023-02-17T11:06:06.514Z,11.62
2023-02-17T11:08:43.405Z,11.64
2023-02-17T11:11:21.353Z,11.68
2023-02-17T11:14:06.768Z,11.71
2023-02-17T11:16:39.261Z,11.78
2023-02-17T11:19:11.078Z,11.91
2023-02-17T11:21:46.747Z,11.77
2023-02-17T11:24:18.752Z,11.88
2023-02-17T11:27:00.350Z,11.97
2023-02-17T11:29:37.136Z,11.98
2023-02-17T11:32:11.613Z,12.01
2023-02-17T11:34:47.483Z,12.05
2023-02-17T11:37:53.988Z,12.13
2023-02-17T11:40:30.442Z,12.15
2023-02-17T11:43:08.340Z,12.17
2023-02-17T11:45:45.006Z,12.18
2023-02-17T11:48:35.502Z,12.17
2023-02-17T11:51:12.185Z,12.26
2023-02-17T11:53:52.824Z,12.25
2023-02-17T11:56:27.674Z,12.29
2023-02-17T11:59:28.833Z,12.26
2023-02-17T12:02:17.754Z,12.30
2023-02-17T12:05:01.601Z,12.39
2023-02-17T12:07:45.637Z,12.38
2023-02-17T12:10:40.959Z,12.31
2023-02-17T12:13:26.641Z,12.31
2023-02-17T12:16:17.356Z,12.34
2023-02-17T12:18:57.565Z,12.28
2023-02-17T12:21:45.897Z,12.31
2023-02-17T12:24:46.297Z,12.29
2023-02-17T12:27:41.564Z,12.39
2023-02-17T12:30:33.511Z,12.25
2023-02-17T12:33:35.880Z,12.29
2023-02-17T12:36:08.212Z,12.31
2023-02-17T12:38:43.598Z,12.34
2023-02-17T12:41:16.434Z,12.34
2023-02-17T12:44:08.956Z,12.33
2023-02-17T12:46:41.021Z,12.27
2023-02-17T12:49:30.841Z,12.30
2023-02-17T12:52:03.091Z,12.30
2023-02-17T12:54:56.032Z,12.27
2023-02-17T12:57:28.912Z,12.30
2023-02-17T13:00:14.163Z,12.28
2023-02-17T13:02:45.291Z,12.28
2023-02-17T13:05:36.076Z,12.35
2023-02-17T13:08:07.847Z,12.33
2023-02-17T13:10:41.306Z,12.33
2023-02-17T13:13:14.937Z,12.46
2023-02-17T13:15:47.279Z,12.36
2023-02-17T13:18:31.166Z,12.35
2023-02-17T13:21:17.929Z,12.27
2023-02-17T13:24:12.167Z,12.33
2023-02-17T13:26:50.946Z,12.33
2023-02-17T13:29:37.516Z,12.41
2023-02-17T13:32:12.145Z,12.47
2023-02-17T13:34:46.567Z,12.50
2023-02-17T13:37:29.136Z,12.45
2023-02-17T13:40:03.553Z,12.54
2023-02-17T13:42:42.158Z,12.49
2023-02-17T13:45:26.149Z,12.49
2023-02-17T13:47:59.941Z,12.54
2023-02-17T13:50:37.998Z,12.60
2023-02-17T13:53:26.325Z,12.55
2023-02-17T13:56:07.840Z,12.61
2023-02-17T13:58:46.070Z,12.69
2023-02-17T14:01:19.524Z,12.65
2023-02-17T14:03:54.305Z,12.71
2023-02-17T14:06:34.077Z,12.63
2023-02-17T14:09:13.397Z,12.71
2023-02-17T14:11:45.003Z,12.69
2023-02-17T14:14:14.905Z,12.82
2023-02-17T14:16:46.450Z,12.84
2023-02-17T14:19:30.217Z,12.87
2023-02-17T14:22:02.217Z,12.93
2023-02-17T14:24:37.252Z,12.90
2023-02-17T14:27:16.487Z,13.01
2023-02-17T14:29:54.324Z,13.05
2023-02-17T14:32:35.364Z,12.90
2023-02-17T14:35:24.191Z,13.02
2023-02-17T14:38:02.080Z,13.07
2023-02-17T14:40:40.227Z,13.11
2023-02-17T14:43:10.196Z,13.10
2023-02-17T14:45:41.051Z,13.12
2023-02-17T14:48:14.733Z,13.23
2023-02-17T14:50:47.135Z,13.27
2023-02-17T14:53:30.934Z,13.39
2023-02-17T14:56:05.349Z,13.38
2023-02-17T14:58:35.514Z,13.42
2023-02-17T15:01:08.035Z,13.44
2023-02-17T15:03:37.267Z,13.42
2023-02-17T15:06:19.028Z,13.52
2023-02-17T15:08:57.785Z,13.46
2023-02-17T15:11:37.206Z,13.56
2023-02-17T15:14:07.164Z,13.48
2023-02-17T15:16:39.338Z,13.64
2023-02-17T15:19:09.159Z,13.67
2023-02-17T15:21:45.825Z,13.66
2023-02-17T15:24:21.644Z,13.66
2023-02-17T15:26:52.204Z,13.71
2023-02-17T15:29:25.051Z,13.66
2023-02-17T15:32:06.619Z,13.66
2023-02-17T15:34:45.891Z,13.75
2023-02-17T15:37:27.726Z,13.75
2023-02-17T15:39:59.223Z,13.73
2023-02-17T15:42:34.140Z,13.58
2023-02-17T15:45:07.123Z,13.67
2023-02-17T15:47:42.639Z,13.66
2023-02-17T15:50:32.996Z,13.75
2023-02-17T15:53:22.554Z,13.78
2023-02-17T15:56:01.347Z,13.92
2023-02-17T15:58:35.231Z,13.88
2023-02-17T16:01:14.421Z,13.90
2023-02-17T16:03:44.341Z,13.93
2023-02-17T16:06:13.943Z,13.91
2023-02-17T16:08:48.641Z,13.94
2023-02-17T16:11:18.829Z,13.95
2023-02-17T16:13:49.148Z,13.88
2023-02-17T16:16:29.701Z,13.81
2023-02-17T16:19:09.966Z,13.96
2023-02-17T16:21:41.886Z,13.95
2023-02-17T16:24:16.278Z,13.97
2023-02-17T16:26:50.382Z,13.94
2023-02-17T16:29:29.845Z,13.95
2023-02-17T16:32:04.629Z,13.94
2023-02-17T16:34:37.004Z,13.92
2023-02-17T16:37:15.288Z,13.86
2023-02-17T16:39:52.850Z,13.82
2023-02-17T16:42:23.232Z,13.85
2023-02-17T16:44:52.798Z,13.94
2023-02-17T16:47:30.275Z,13.95
2023-02-17T16:50:02.601Z,13.97
2023-02-17T16:52:32.611Z,13.94
2023-02-17T16:55:24.482Z,13.89
2023-02-17T16:58:09.647Z,13.97
2023-02-17T17:00:47.152Z,13.91
2023-02-17T17:03:25.002Z,13.88
2023-02-17T17:06:03.291Z,13.83
2023-02-17T17:08:38.926Z,13.85
2023-02-17T17:11:23.768Z,13.82
2023-02-17T17:14:09.536Z,13.85
2023-02-17T17:16:41.481Z,13.77
2023-02-17T17:19:22.542Z,13.82
2023-02-17T17:21:57.017Z,13.76
2023-02-17T17:24:29.326Z,13.76
2023-02-17T17:27:00.999Z,13.81
2023-02-17T17:29:46.053Z,13.75
2023-02-17T17:32:22.023Z,13.84
2023-02-17T17:34:58.932Z,13.76
2023-02-17T17:37:28.345Z,13.72
2023-02-17T17:40:03.852Z,13.68
2023-02-17T17:42:51.267Z,13.67
2023-02-17T17:45:32.663Z,13.74
2023-02-17T17:48:19.123Z,13.74
2023-02-17T17:51:01.256Z,13.69
2023-02-17T17:53:35.626Z,13.70
2023-02-17T17:56:12.813Z,13.67
2023-02-17T17:59:04.600Z,13.71
2023-02-17T18:01:46.035Z,13.67
2023-02-17T18:04:19.318Z,13.68
2023-02-17T18:06:57.285Z,13.71
2023-02-17T18:09:47.226Z,13.70
2023-02-17T18:12:25.206Z,13.74
2023-02-17T18:15:03.354Z,13.70
2023-02-17T18:17:37.490Z,13.57
2023-02-17T18:20:10.994Z,13.66
2023-02-17T18:22:43.852Z,13.65
2023-02-17T18:25:15.226Z,13.62
2023-02-17T18:27:49.601Z,13.62
2023-02-17T18:30:29.092Z,13.66
2023-02-17T18:33:04.361Z,13.64
2023-02-17T18:35:37.491Z,13.61
2023-02-17T18:38:11.784Z,13.62
2023-02-17T18:43:47.588Z,13.57
2023-02-17T18:46:35.844Z,13.58
2023-02-17T18:49:07.034Z,13.65
2023-02-17T18:51:48.042Z,13.65
2023-02-17T18:54:28.263Z,13.50
2023-02-17T18:56:59.808Z,13.53
2023-02-17T18:59:32.113Z,13.51
2023-02-17T19:02:08.353Z,13.51
2023-02-17T19:04:41.237Z,13.56
2023-02-17T19:07:11.382Z,13.49
2023-02-17T19:09:52.307Z,13.59
2023-02-17T19:12:29.656Z,13.58
2023-02-17T19:15:02.272Z,13.51
2023-02-17T19:17:51.137Z,13.56
2023-02-17T19:20:30.776Z,13.57
2023-02-17T19:23:04.544Z,13.50
2023-02-17T19:25:48.630Z,13.45
2023-02-17T19:28:27.037Z,13.50
2023-02-17T19:31:03.635Z,13.51
2023-02-17T19:33:51.671Z,13.56
2023-02-17T19:36:31.629Z,13.60
2023-02-17T19:39:10.996Z,13.69
2023-02-17T19:41:47.573Z,13.63
2023-02-17T19:44:27.694Z,13.67
2023-02-17T19:47:03.038Z,13.58
2023-02-17T19:49:47.237Z,13.67
2023-02-17T19:52:34.096Z,13.58
2023-02-17T19:55:06.969Z,13.66
2023-02-17T19:57:38.155Z,13.74
2023-02-17T20:00:10.518Z,13.65
2023-02-17T20:02:41.473Z,13.63
2023-02-17T20:05:24.365Z,13.57
2023-02-17T20:08:04.253Z,13.70
2023-02-17T20:10:45.205Z,13.56
2023-02-17T20:13:44.626Z,13.62
2023-02-17T20:16:25.184Z,13.52
2023-02-17T20:18:56.634Z,13.55
2023-02-17T20:21:37.774Z,13.60
2023-02-17T20:24:20.037Z,13.56
2023-02-17T20:27:01.023Z,13.59
2023-02-17T20:29:40.710Z,13.52
2023-02-17T20:32:13.233Z,13.48
2023-02-17T20:34:56.500Z,13.49
2023-02-17T20:37:29.144Z,13.41
2023-02-17T20:40:09.306Z,13.36
2023-02-17T20:42:52.365Z,13.38
2023-02-17T20:45:25.884Z,13.37
2023-02-17T20:47:57.964Z,13.34
2023-02-17T20:50:27.976Z,13.45
2023-02-17T20:53:10.989Z,13.37
2023-02-17T20:55:46.336Z,13.37
2023-02-17T20:58:34.494Z,13.42
2023-02-17T21:01:07.095Z,13.43
2023-02-17T21:03:40.189Z,13.37
2023-02-17T21:06:29.631Z,13.42
2023-02-17T21:09:09.315Z,13.37
2023-02-17T21:11:49.471Z,13.36
2023-02-17T21:14:22.268Z,13.34
2023-02-17T21:16:54.883Z,13.42
2023-02-17T21:19:32.754Z,13.41
2023-02-17T21:22:08.492Z,13.37
2023-02-17T21:24:41.976Z,13.30
2023-02-17T21:27:18.128Z,13.40
2023-02-17T21:30:02.421Z,13.39
2023-02-17T21:32:40.885Z,13.23
2023-02-17T21:35:12.189Z,13.41
2023-02-17T21:37:46.451Z,13.46
2023-02-17T21:40:19.997Z,13.37
2023-02-17T21:43:06.859Z,13.38
2023-02-17T21:45:41.268Z,13.42
2023-02-17T21:48:20.740Z,13.32
2023-02-17T21:50:51.467Z,13.45
2023-02-17T21:53:22.725Z,13.36
2023-02-17T21:56:08.523Z,13.33
2023-02-17T21:58:51.248Z,13.33
2023-02-17T22:01:31.797Z,13.44
2023-02-17T22:04:07.405Z,13.50
2023-02-17T22:06:41.996Z,13.50
2023-02-17T22:09:18.303Z,13.51
2023-02-17T22:11:55.445Z,13.53
2023-02-17T22:14:27.323Z,13.63
2023-02-17T22:16:58.114Z,13.62
2023-02-17T22:19:31.279Z,13.51
2023-02-17T22:22:00.462Z,13.66
2023-02-17T22:24:32.179Z,13.62
2023-02-17T22:27:15.792Z,13.58
2023-02-17T22:29:46.493Z,13.54
2023-02-17T22:32:15.852Z,13.57
2023-02-17T22:34:49.849Z,13.44
2023-02-17T22:37:24.774Z,13.62
2023-02-17T22:40:01.839Z,13.55
2023-02-17T22:42:38.515Z,13.51
2023-02-17T22:45:13.300Z,13.56
2023-02-17T22:47:43.166Z,13.62
2023-02-17T22:50:12.120Z,13.49
2023-02-17T22:52:40.433Z,13.56
2023-02-17T22:55:09.066Z,13.56
2023-02-17T22:57:51.169Z,13.63
2023-02-17T23:00:22.892Z,13.50
2023-02-17T23:02:58.889Z,13.39
2023-02-17T23:05:31.247Z,13.50
2023-02-17T23:07:59.554Z,13.49
2023-02-17T23:10:33.587Z,13.39
2023-02-17T23:13:09.158Z,13.42
2023-02-17T23:15:40.942Z,13.46
2023-02-17T23:18:20.407Z,13.67
2023-02-17T23:20:52.404Z,13.53
2023-02-17T23:23:33.434Z,13.51
2023-02-17T23:26:02.527Z,13.71
2023-02-17T23:28:44.351Z,13.66
2023-02-17T23:31:15.944Z,13.56
2023-02-17T23:33:46.210Z,13.55
2023-02-17T23:36:21.360Z,13.57
2023-02-17T23:38:51.479Z,13.68
2023-02-17T23:41:24.454Z,13.69
2023-02-17T23:44:13.701Z,13.43
2023-02-17T23:46:56.234Z,13.50
2023-02-17T23:49:28.348Z,13.63
2023-02-17T23:51:58.955Z,13.61
2023-02-17T23:54:35.270Z,13.79
2023-02-17T23:57:03.564Z,13.75
2023-02-17T23:59:33.566Z,13.82
